Silver City, New Mexico
Current Conditions -  °F | °C
As of 5:15 AM on Monday 24 Nov 2014 (Local Time) from KSVC Reporting Station
Clear Clear  
Wind Chill: 11°   Ceiling: Unl
Heat Index: 21°   Visibility: 10mi
Dew Point: -2°   Wind: 9mph
Humidity: 36%   Direction: 10°N
Pressure: 30.16"   Gusts: NA
Location:  32.77°N, 108.27°W
Report Text: KSVC 241215Z AUTO 01008KT 10SM CLR M06/M19 A3016 RMK AO2
Loading
Personal Weather Stations






























Interactive Weather Map New forecast layout! Learn more

10-Day Weather Forecast

Advertisements
Track Severe Weather on mobile